Startpagina
METAR-TAF:

METAR-TAF

Vliegvelden :

Meppen, Duitsland

Militair vliegvled

breedte: 52-43-24N, lengte: 007-19-35E, hoogte: 21 m

Actueel weer

Dit bericht is 29 minuten geleden gemaakt, om 18:20 UTC
Wind 1 kt uit variabele richting
Temperatuur 18°C
Vochtigheid 77%
Druk 1006 hPa
Zicht 10 km of meer

METAR: ETWM 271820Z AUTO VRB01KT 9999 // ////// 18/14 Q1006 ///

Tijdstip: 20:49 (18:49 UTC)


TAF: ontbreekt

Waarnemingen en weersverwachtingen van meer dan 4000 vliegvelden (METAR en TAF).

De beschikbare stations zijn de gele en rode punten op de kaart.

Ga met uw muis naar het station om de naam te zien.

Klik dan om waarnemingen en weersverwachtingen te zien.

kaart wijzigen: klik op de groene knoppen met een zwart kruis om in te zoomen, op de groene knop met een streepje om uit te zoomen of op de groene pijlen voor aangrenzende kaarten.


METAR-TAF: